Time;durP1;ratioP1;P1;durP2;ratioP2;P2;SDS_P1;SDS_P2;PMS_P1;PMS_P2;Temp;Humidity;BMP_temperature;BMP_pressure;BME280_temperature;BME280_humidity;BME280_pressure;Samples;Min_cycle;Max_cycle;Signal;HPM_P1;HPM_P2
2022/07/05 00:02:01;;;;;;;2.97;1.25;;;;;;;17.57;90.86;96467.31;5026846;28;20025;-78
2022/07/05 00:04:26;;;;;;;2.22;1.20;;;;;;;17.55;90.63;96472.00;5030870;28;20025;-78
2022/07/05 00:09:36;;;;;;;2.03;1.20;;;;;;;17.44;91.69;96469.91;5016085;28;20450;-77
2022/07/05 00:12:02;;;;;;;1.95;1.17;;;;;;;17.30;90.71;96463.69;5029062;28;20036;-79
2022/07/05 00:14:28;;;;;;;4.15;1.33;;;;;;;17.17;91.90;96464.44;5025152;28;20022;-78
2022/07/05 00:16:54;;;;;;;5.38;1.52;;;;;;;17.10;93.17;96474.22;5023947;28;20037;-78
2022/07/05 00:19:20;;;;;;;3.00;1.20;;;;;;;17.05;94.61;96467.81;5019544;28;20040;-78
2022/07/05 00:21:46;;;;;;;2.28;1.48;;;;;;;17.11;96.54;96467.88;5022064;28;20030;-78
2022/07/05 00:24:12;;;;;;;5.22;1.45;;;;;;;17.09;96.25;96463.75;5024506;28;20369;-78
2022/07/05 00:26:38;;;;;;;3.35;1.58;;;;;;;17.07;97.15;96471.09;5022652;28;20064;-78
2022/07/05 00:29:03;;;;;;;4.63;1.65;;;;;;;16.86;98.45;96466.66;5029395;28;20083;-77
2022/07/05 00:31:29;;;;;;;1.77;1.20;;;;;;;16.82;99.30;96468.06;5026023;28;20881;-77
2022/07/05 00:33:55;;;;;;;2.78;1.40;;;;;;;16.69;100.00;96468.75;5028401;28;20080;-78
2022/07/05 00:36:21;;;;;;;2.92;1.75;;;;;;;16.62;100.00;96467.88;5010997;28;20028;-77
2022/07/05 00:38:47;;;;;;;2.97;1.65;;;;;;;16.41;100.00;96474.03;5027131;28;20029;-78
2022/07/05 00:41:13;;;;;;;5.00;1.70;;;;;;;16.45;100.00;96476.09;5007820;28;20037;-77
2022/07/05 00:43:56;;;;;;;3.35;1.50;;;;;;;16.43;100.00;96477.28;5007919;28;20072;-78
2022/07/05 00:46:22;;;;;;;2.95;1.50;;;;;;;16.42;100.00;96465.84;5003229;28;21274;-77
2022/07/05 00:48:48;;;;;;;4.35;1.50;;;;;;;16.43;100.00;96469.31;5027712;28;20033;-77
2022/07/05 00:51:14;;;;;;;2.88;1.50;;;;;;;16.31;100.00;96465.56;5010346;28;20025;-77
2022/07/05 00:53:40;;;;;;;6.57;1.77;;;;;;;16.25;100.00;96472.44;5014852;28;20119;-78
2022/07/05 00:56:06;;;;;;;3.45;1.67;;;;;;;16.25;100.00;96473.25;5029733;28;20029;-77
2022/07/05 00:58:33;;;;;;;2.88;1.70;;;;;;;16.16;100.00;96471.75;5019591;28;20777;-78
2022/07/05 01:01:01;;;;;;;3.20;1.75;;;;;;;15.94;100.00;96473.53;5020200;28;20048;-77
2022/07/05 01:03:27;;;;;;;4.45;1.90;;;;;;;15.90;100.00;96472.28;5007514;28;20472;-78
2022/07/05 01:05:54;;;;;;;4.85;2.03;;;;;;;16.04;100.00;96481.19;5024636;28;20049;-78
2022/07/05 01:08:22;;;;;;;3.40;1.77;;;;;;;16.05;100.00;96474.88;5024933;28;20040;-77
2022/07/05 01:10:48;;;;;;;3.97;1.70;;;;;;;15.86;100.00;96476.31;5028697;28;20025;-78
2022/07/05 01:13:14;;;;;;;6.03;2.00;;;;;;;15.85;100.00;96473.81;5025191;28;20045;-77
2022/07/05 01:15:41;;;;;;;4.13;1.90;;;;;;;15.91;100.00;96473.09;5040775;28;20045;-77
2022/07/05 01:18:08;;;;;;;3.00;1.60;;;;;;;15.97;100.00;96469.69;5039047;28;20033;-77
2022/07/05 01:20:35;;;;;;;3.20;2.00;;;;;;;15.99;100.00;96470.31;5011363;28;20029;-77
2022/07/05 01:23:02;;;;;;;3.35;1.85;;;;;;;15.83;100.00;96470.53;5026708;28;20035;-77
2022/07/05 01:25:29;;;;;;;3.88;1.70;;;;;;;15.84;100.00;96474.84;5022177;28;20064;-78
2022/07/05 01:27:57;;;;;;;4.93;1.45;;;;;;;15.87;100.00;96471.81;5027937;28;20037;-77
2022/07/05 01:30:24;;;;;;;3.67;1.90;;;;;;;15.90;100.00;96471.44;5035173;28;20156;-77
2022/07/05 01:32:50;;;;;;;3.90;1.80;;;;;;;15.65;100.00;96473.56;5033405;28;20029;-78
2022/07/05 01:35:20;;;;;;;1.90;1.40;;;;;;;15.61;100.00;96477.59;5023444;28;20034;-77
2022/07/05 01:37:47;;;;;;;2.23;1.60;;;;;;;15.59;100.00;96477.75;5025735;28;20033;-77
2022/07/05 01:40:13;;;;;;;2.67;1.87;;;;;;;15.65;100.00;96474.38;5028056;28;20117;-78
2022/07/05 01:42:40;;;;;;;3.00;1.60;;;;;;;15.64;100.00;96471.91;5028135;28;20559;-77
2022/07/05 01:45:06;;;;;;;3.00;1.83;;;;;;;15.60;100.00;96474.13;5027837;28;20037;-77
2022/07/05 01:47:36;;;;;;;5.07;2.10;;;;;;;15.58;100.00;96473.47;5031008;28;20033;-77
2022/07/05 01:50:05;;;;;;;3.93;2.13;;;;;;;15.34;100.00;96482.53;5031992;28;20036;-77
2022/07/05 01:52:33;;;;;;;4.57;1.97;;;;;;;15.32;100.00;96473.94;5027801;28;20025;-76
2022/07/05 01:55:00;;;;;;;6.60;2.07;;;;;;;15.27;100.00;96474.50;5014737;28;20099;-77
2022/07/05 01:57:27;;;;;;;4.47;1.80;;;;;;;15.29;100.00;96472.50;5028846;28;20029;-76
2022/07/05 01:59:52;;;;;;;4.23;1.80;;;;;;;15.28;100.00;96475.31;5025010;28;20110;-77
2022/07/05 02:02:18;;;;;;;2.17;1.50;;;;;;;15.32;100.00;96471.28;5031705;28;20466;-76
2022/07/05 02:04:44;;;;;;;6.50;1.93;;;;;;;15.27;100.00;96473.66;5027986;28;20028;-77
2022/07/05 02:07:12;;;;;;;4.23;1.70;;;;;;;15.20;100.00;96486.00;5044121;28;20172;-77
2022/07/05 02:09:39;;;;;;;4.47;2.23;;;;;;;15.15;100.00;96483.06;5029119;28;20500;-76
2022/07/05 02:12:06;;;;;;;2.73;1.80;;;;;;;14.96;100.00;96479.13;5012771;28;20056;-76
2022/07/05 02:14:33;;;;;;;2.07;1.60;;;;;;;14.89;100.00;96475.53;5006778;28;20014;-76
2022/07/05 02:17:00;;;;;;;5.00;2.30;;;;;;;14.75;100.00;96485.09;5033518;28;20037;-77
2022/07/05 02:19:27;;;;;;;4.93;2.27;;;;;;;14.75;100.00;96483.28;5015797;28;20053;-76
2022/07/05 02:21:54;;;;;;;4.77;1.90;;;;;;;14.75;100.00;96483.28;5017026;28;20099;-77
2022/07/05 02:24:20;;;;;;;5.97;2.00;;;;;;;14.69;100.00;96484.00;5031766;28;20025;-77
2022/07/05 02:26:57;;;;;;;3.87;1.83;;;;;;;14.68;100.00;96482.34;5034908;28;20033;-77
2022/07/05 02:29:23;;;;;;;4.73;2.13;;;;;;;14.68;100.00;96479.69;5028870;28;20037;-76
2022/07/05 02:31:49;;;;;;;4.27;2.30;;;;;;;14.58;100.00;96477.28;5011823;28;20476;-77
2022/07/05 02:34:15;;;;;;;3.63;2.33;;;;;;;14.60;100.00;96477.94;5008927;28;20028;-77
2022/07/05 02:36:41;;;;;;;5.00;2.00;;;;;;;14.60;100.00;96482.44;5043629;28;20688;-77
2022/07/05 02:39:10;;;;;;;2.63;1.87;;;;;;;14.57;100.00;96474.84;5029522;28;20024;-77
2022/07/05 02:41:36;;;;;;;3.33;1.97;;;;;;;14.39;100.00;96485.72;5029852;28;21249;-76
2022/07/05 02:44:02;;;;;;;2.67;1.90;;;;;;;14.39;100.00;96480.41;5033280;28;20104;-77
2022/07/05 02:46:28;;;;;;;4.03;2.07;;;;;;;14.34;100.00;96486.22;5032631;28;20069;-77
2022/07/05 02:48:56;;;;;;;2.63;1.80;;;;;;;14.11;100.00;96483.56;5033517;28;20029;-77
2022/07/05 02:51:23;;;;;;;4.80;2.40;;;;;;;14.27;100.00;96484.47;5012518;28;20057;-76
2022/07/05 02:53:51;;;;;;;6.67;2.20;;;;;;;14.14;100.00;96477.91;5032444;28;20013;-76
2022/07/05 02:56:17;;;;;;;5.90;2.00;;;;;;;14.21;100.00;96487.81;5028659;28;21309;-77
2022/07/05 02:58:43;;;;;;;6.20;2.30;;;;;;;14.27;100.00;96484.47;5043927;28;20403;-77
2022/07/05 03:01:12;;;;;;;4.97;2.07;;;;;;;14.14;100.00;96485.84;5029153;28;20036;-77
2022/07/05 03:03:39;;;;;;;4.40;2.20;;;;;;;14.18;100.00;96486.31;5012520;28;20029;-77
2022/07/05 03:06:05;;;;;;;4.47;2.13;;;;;;;14.07;100.00;96478.81;5014666;28;20044;-76
2022/07/05 03:08:33;;;;;;;3.83;1.80;;;;;;;14.11;100.00;96478.28;5032741;28;20383;-77
2022/07/05 03:10:59;;;;;;;4.50;2.40;;;;;;;14.20;100.00;96479.06;5027290;28;20029;-77
2022/07/05 03:13:25;;;;;;;4.97;2.47;;;;;;;14.13;100.00;96478.94;5027854;28;20040;-76
2022/07/05 03:15:51;;;;;;;5.27;2.37;;;;;;;14.13;100.00;96481.56;5028893;28;20033;-76
2022/07/05 03:18:21;;;;;;;4.50;2.57;;;;;;;14.14;100.00;96487.69;5026565;28;20400;-77
2022/07/05 03:20:46;;;;;;;3.93;2.47;;;;;;;14.07;100.00;96495.50;5027675;28;20048;-77
2022/07/05 03:23:13;;;;;;;3.97;2.60;;;;;;;14.17;100.00;96492.63;5026625;28;20489;-76
2022/07/05 03:25:44;;;;;;;6.10;4.47;;;;;;;14.23;100.00;96493.75;5025415;28;20365;-76
2022/07/05 03:28:11;;;;;;;7.27;2.80;;;;;;;14.15;100.00;96494.59;5026690;28;20084;-76
2022/07/05 03:30:40;;;;;;;5.13;2.50;;;;;;;14.29;100.00;96498.34;5025232;28;20649;-76
2022/07/05 03:33:06;;;;;;;4.57;2.10;;;;;;;14.35;100.00;96494.97;5024492;28;20060;-76
2022/07/05 03:35:34;;;;;;;4.50;2.23;;;;;;;14.34;100.00;96494.16;5008328;28;20446;-77
2022/07/05 03:38:01;;;;;;;3.70;1.90;;;;;;;14.38;100.00;96503.41;5024126;28;20029;-78
2022/07/05 03:40:27;;;;;;;3.60;2.00;;;;;;;14.27;100.00;96495.88;5027982;28;20071;-77
2022/07/05 03:42:53;;;;;;;5.97;1.87;;;;;;;14.26;100.00;96494.22;5027256;28;20036;-76
2022/07/05 03:45:19;;;;;;;5.73;2.37;;;;;;;14.26;100.00;96499.50;5018554;28;20014;-76
2022/07/05 03:47:45;;;;;;;3.50;2.17;;;;;;;14.37;100.00;96500.94;5030496;28;20040;-76
2022/07/05 03:50:13;;;;;;;4.50;2.30;;;;;;;14.18;100.00;96502.19;5030607;28;20041;-77
2022/07/05 03:52:40;;;;;;;4.47;2.27;;;;;;;14.23;100.00;96504.34;5027072;28;20040;-76
2022/07/05 03:55:06;;;;;;;4.77;1.83;;;;;;;14.29;100.00;96509.75;5027085;28;20021;-77
2022/07/05 03:57:33;;;;;;;6.90;3.10;;;;;;;14.17;100.00;96516.44;5040611;28;20021;-76
2022/07/05 03:59:59;;;;;;;6.60;2.53;;;;;;;14.16;100.00;96514.78;5026951;28;20026;-77
2022/07/05 04:02:25;;;;;;;7.23;2.40;;;;;;;14.20;100.00;96520.56;5009794;28;20037;-76
2022/07/05 04:04:52;;;;;;;6.03;2.40;;;;;;;14.28;100.00;96517.84;5025366;28;20435;-78
2022/07/05 04:07:18;;;;;;;4.40;2.37;;;;;;;14.30;100.00;96516.69;5028982;28;20080;-76
2022/07/05 04:09:45;;;;;;;4.60;2.27;;;;;;;14.33;100.00;96516.31;5011224;28;20060;-76
2022/07/05 04:12:11;;;;;;;6.10;2.47;;;;;;;14.43;100.00;96523.22;5032014;28;20045;-76
2022/07/05 04:14:40;;;;;;;8.37;3.07;;;;;;;14.57;100.00;96518.00;5025203;28;20033;-76
2022/07/05 04:17:06;;;;;;;8.27;2.70;;;;;;;14.64;100.00;96519.94;5021515;28;20025;-76
2022/07/05 04:19:32;;;;;;;5.20;2.80;;;;;;;14.77;100.00;96521.00;5019382;28;20523;-77
2022/07/05 04:21:58;;;;;;;7.13;2.80;;;;;;;14.81;100.00;96524.91;5027265;28;20060;-76
2022/07/05 04:24:24;;;;;;;5.43;2.83;;;;;;;14.89;100.00;96525.84;5025751;28;20049;-76
2022/07/05 04:26:50;;;;;;;7.30;2.97;;;;;;;14.94;100.00;96529.63;5015094;28;20026;-76
2022/07/05 04:29:16;;;;;;;9.00;2.73;;;;;;;14.72;100.00;96531.31;5031484;28;21482;-76
2022/07/05 04:31:41;;;;;;;3.87;2.50;;;;;;;14.52;100.00;96546.84;5026439;28;20064;-77
2022/07/05 04:34:07;;;;;;;7.27;2.80;;;;;;;14.31;100.00;96547.41;5024105;28;20392;-76
2022/07/05 04:36:40;;;;;;;4.30;2.27;;;;;;;14.49;100.00;96547.16;5021704;28;20105;-77
2022/07/05 04:39:07;;;;;;;5.27;2.50;;;;;;;14.56;100.00;96542.84;5028542;28;20043;-76
2022/07/05 04:41:34;;;;;;;5.80;2.53;;;;;;;14.56;100.00;96547.31;5020902;28;20049;-77
2022/07/05 04:44:01;;;;;;;5.87;2.60;;;;;;;14.73;100.00;96548.81;5028876;28;20063;-76
2022/07/05 04:46:28;;;;;;;3.70;2.10;;;;;;;14.86;100.00;96550.88;5040417;28;20061;-76
2022/07/05 04:48:54;;;;;;;6.43;2.70;;;;;;;15.00;100.00;96554.56;5030090;28;20045;-76
2022/07/05 04:51:20;;;;;;;4.23;2.40;;;;;;;15.09;100.00;96550.84;5027897;28;20037;-76
2022/07/05 04:53:46;;;;;;;8.60;2.50;;;;;;;15.16;100.00;96556.25;5013299;28;20033;-77
2022/07/05 04:56:12;;;;;;;4.90;2.50;;;;;;;15.24;100.00;96562.28;5031456;28;20041;-76
2022/07/05 04:58:37;;;;;;;5.70;2.63;;;;;;;15.28;100.00;96554.78;5010554;28;20126;-77
2022/07/05 05:01:03;;;;;;;6.03;2.60;;;;;;;15.33;100.00;96561.22;5026328;28;20033;-76
2022/07/05 05:03:29;;;;;;;4.93;2.47;;;;;;;15.39;100.00;96562.31;5018377;28;20038;-77
2022/07/05 05:05:55;;;;;;;7.33;3.00;;;;;;;15.46;100.00;96565.88;5020209;28;20027;-77
2022/07/05 05:08:20;;;;;;;8.30;2.50;;;;;;;15.62;100.00;96561.41;5026951;28;20044;-76
2022/07/05 05:10:46;;;;;;;4.80;2.80;;;;;;;15.74;100.00;96558.16;5023725;28;20044;-77
2022/07/05 05:13:12;;;;;;;4.03;2.03;;;;;;;15.89;100.00;96563.44;5024082;28;20037;-78
2022/07/05 05:15:38;;;;;;;4.43;2.50;;;;;;;16.04;100.00;96560.78;5031406;28;20028;-76
2022/07/05 05:18:03;;;;;;;7.13;3.40;;;;;;;16.18;100.00;96554.63;5027599;28;20095;-76
2022/07/05 05:20:30;;;;;;;4.43;2.57;;;;;;;16.31;100.00;96559.25;5025578;28;20029;-76
2022/07/05 05:22:55;;;;;;;6.00;2.65;;;;;;;16.38;100.00;96565.47;5018870;28;20518;-76
2022/07/05 05:25:21;;;;;;;4.43;2.13;;;;;;;16.53;100.00;96562.75;5028717;28;20029;-76
2022/07/05 05:27:49;;;;;;;4.47;2.27;;;;;;;16.69;100.00;96565.16;5033426;28;20030;-77
2022/07/05 05:30:17;;;;;;;2.63;1.73;;;;;;;16.81;100.00;96559.41;5034466;28;20036;-77
2022/07/05 05:32:43;;;;;;;5.10;2.17;;;;;;;16.67;100.00;96559.22;5014526;28;20030;-77
2022/07/05 05:35:09;;;;;;;4.40;2.40;;;;;;;16.92;100.00;96556.22;5035345;28;20040;-77
2022/07/05 05:37:47;;;;;;;5.65;2.65;;;;;;;17.07;100.00;96559.63;5026450;28;20149;-76
2022/07/05 05:40:13;;;;;;;3.70;1.90;;;;;;;17.26;100.00;96552.81;5033006;28;20124;-77
2022/07/05 05:42:38;;;;;;;8.02;2.00;;;;;;;17.39;100.00;96558.22;5012403;28;20124;-76
2022/07/05 05:45:04;;;;;;;3.40;1.60;;;;;;;17.75;100.00;96557.22;5030894;28;20048;-76
2022/07/05 05:47:30;;;;;;;3.53;1.80;;;;;;;17.83;100.00;96553.59;5030342;28;20064;-76
2022/07/05 05:49:56;;;;;;;2.97;1.65;;;;;;;18.09;99.78;96551.06;5030120;28;20069;-77
2022/07/05 05:52:21;;;;;;;3.92;1.63;;;;;;;18.20;100.00;96548.84;5029346;28;20037;-76
2022/07/05 05:54:47;;;;;;;3.53;1.42;;;;;;;18.12;99.04;96552.53;5028510;28;20106;-76
2022/07/05 05:57:13;;;;;;;5.75;1.70;;;;;;;18.73;98.20;96554.34;5026534;28;20045;-76
2022/07/05 05:59:38;;;;;;;3.67;1.63;;;;;;;18.99;96.80;96561.56;5029069;28;20030;-77
2022/07/05 06:02:04;;;;;;;3.47;2.05;;;;;;;18.96;95.47;96564.63;5033812;28;20021;-76
2022/07/05 06:04:30;;;;;;;2.28;1.38;;;;;;;19.08;90.00;96557.69;5029894;28;20057;-76
2022/07/05 06:06:55;;;;;;;4.35;2.03;;;;;;;19.42;85.79;96561.97;5029644;28;20087;-76
2022/07/05 06:09:21;;;;;;;4.18;1.85;;;;;;;19.48;86.34;96569.16;5023035;28;20618;-76
2022/07/05 06:11:47;;;;;;;5.00;1.60;;;;;;;19.67;85.09;96562.16;5028266;28;20408;-76
2022/07/05 06:14:12;;;;;;;4.45;1.77;;;;;;;19.78;80.51;96564.22;5026744;28;20930;-78
2022/07/05 06:16:38;;;;;;;5.30;1.60;;;;;;;20.09;71.56;96564.53;5030011;28;20065;-76
2022/07/05 06:19:04;;;;;;;2.33;1.20;;;;;;;20.35;70.95;96567.06;5028653;28;20036;-77
2022/07/05 06:21:30;;;;;;;3.78;1.15;;;;;;;20.61;65.45;96578.69;5031420;28;20528;-76
2022/07/05 06:23:55;;;;;;;3.20;1.20;;;;;;;20.77;65.89;96572.84;5029672;28;20792;-77
2022/07/05 06:26:21;;;;;;;4.32;1.42;;;;;;;20.62;61.93;96586.50;5030839;28;20030;-77
2022/07/05 06:28:49;;;;;;;2.95;1.30;;;;;;;21.16;62.74;96576.28;5028377;28;20033;-77
2022/07/05 06:31:15;;;;;;;1.67;0.93;;;;;;;21.31;61.76;96575.97;5026791;28;20040;-76
2022/07/05 06:33:40;;;;;;;1.85;1.20;;;;;;;21.06;64.55;96578.59;5023460;28;20021;-76
2022/07/05 06:36:06;;;;;;;4.20;1.92;;;;;;;21.21;67.22;96576.44;5025932;28;20039;-77
2022/07/05 06:38:32;;;;;;;3.85;1.75;;;;;;;21.62;70.35;96575.91;5029621;28;20049;-77
2022/07/05 06:40:59;;;;;;;4.30;1.77;;;;;;;22.13;73.69;96571.25;5027331;28;20403;-77
2022/07/05 06:43:25;;;;;;;4.00;2.00;;;;;;;22.13;75.14;96572.09;5021696;28;20497;-76
2022/07/05 06:45:59;;;;;;;3.45;1.60;;;;;;;22.63;74.39;96571.06;5022910;28;20024;-77
2022/07/05 06:48:25;;;;;;;4.15;1.70;;;;;;;22.42;70.22;96575.06;5025890;28;20038;-77
2022/07/05 06:50:51;;;;;;;4.53;2.28;;;;;;;22.84;65.40;96572.44;5015520;28;20392;-77
2022/07/05 06:53:16;;;;;;;4.93;2.00;;;;;;;23.34;67.89;96582.00;5028962;28;20041;-77
2022/07/05 06:55:44;;;;;;;4.05;1.63;;;;;;;22.39;70.62;96585.41;5022592;28;20026;-77
2022/07/05 06:58:11;;;;;;;2.83;1.73;;;;;;;22.97;68.67;96582.16;5026828;28;20033;-77
2022/07/05 07:00:37;;;;;;;6.57;3.08;;;;;;;23.33;65.35;96586.56;5027844;28;20412;-77
2022/07/05 07:03:03;;;;;;;7.80;3.10;;;;;;;23.20;65.65;96582.22;5028781;28;20036;-77
2022/07/05 07:05:28;;;;;;;3.08;1.50;;;;;;;23.98;52.53;96577.63;5006189;28;20128;-78
2022/07/05 07:10:38;;;;;;;3.03;1.30;;;;;;;24.59;49.07;96581.59;5024135;28;20591;-76
2022/07/05 07:13:04;;;;;;;3.75;1.10;;;;;;;24.20;50.66;96581.31;5028844;28;20041;-77
2022/07/05 07:15:31;;;;;;;4.88;1.20;;;;;;;24.01;50.56;96579.84;5007123;28;20753;-77
2022/07/05 07:17:57;;;;;;;4.60;1.60;;;;;;;24.47;51.23;96594.25;5022823;28;20436;-78
2022/07/05 07:20:23;;;;;;;3.47;1.50;;;;;;;24.28;50.89;96587.38;5028603;28;20108;-78
2022/07/05 07:22:49;;;;;;;3.40;1.30;;;;;;;24.85;51.88;96590.97;5006151;28;20424;-77
2022/07/05 07:25:15;;;;;;;4.85;1.23;;;;;;;25.56;49.33;96599.47;5025803;28;20030;-77
2022/07/05 07:27:45;;;;;;;6.28;1.48;;;;;;;25.97;48.73;96583.13;5026801;28;20668;-77
2022/07/05 07:30:16;;;;;;;2.60;1.35;;;;;;;26.08;50.03;96588.38;5028216;28;20037;-77
2022/07/05 07:32:42;;;;;;;3.40;1.35;;;;;;;25.40;50.90;96590.31;5028551;28;20431;-76
2022/07/05 07:35:08;;;;;;;3.45;1.63;;;;;;;25.90;49.44;96591.38;5028102;28;20037;-77
2022/07/05 07:37:35;;;;;;;3.28;1.20;;;;;;;26.31;49.32;96589.22;5010609;28;20048;-77
2022/07/05 07:40:01;;;;;;;3.17;1.33;;;;;;;26.47;47.35;96588.38;5028169;28;20026;-78
2022/07/05 07:42:27;;;;;;;2.35;1.42;;;;;;;26.41;48.95;96592.03;5027240;28;20676;-77
2022/07/05 07:44:53;;;;;;;4.63;1.80;;;;;;;26.37;49.06;96592.81;5029169;28;20025;-78
2022/07/05 07:47:20;;;;;;;3.75;1.52;;;;;;;26.38;49.46;96597.94;5027493;28;20116;-78
2022/07/05 07:49:46;;;;;;;3.42;1.50;;;;;;;26.63;49.40;96599.34;5027874;28;20033;-77
2022/07/05 07:52:11;;;;;;;5.93;1.58;;;;;;;26.81;47.98;96601.69;5027687;28;20099;-77
2022/07/05 07:54:37;;;;;;;2.53;1.38;;;;;;;26.86;48.26;96595.53;5028059;28;20021;-77
2022/07/05 07:57:04;;;;;;;3.65;1.70;;;;;;;27.01;48.16;96599.22;5028308;28;20029;-78
2022/07/05 07:59:34;;;;;;;3.03;1.40;;;;;;;27.38;48.26;96598.50;5028639;28;20029;-77
2022/07/05 08:02:01;;;;;;;1.95;1.42;;;;;;;26.64;49.07;96598.28;5019429;28;20038;-78
2022/07/05 08:04:27;;;;;;;3.65;1.50;;;;;;;27.07;47.56;96601.97;5027162;28;20040;-78
2022/07/05 08:06:53;;;;;;;4.93;1.60;;;;;;;27.29;47.58;96597.34;5023357;28;20033;-79
2022/07/05 08:09:19;;;;;;;1.98;1.30;;;;;;;27.61;46.73;96600.03;5021260;28;20037;-77
2022/07/05 08:11:46;;;;;;;5.43;1.27;;;;;;;27.84;44.04;96596.19;5022815;28;20657;-77
2022/07/05 08:14:12;;;;;;;2.85;1.52;;;;;;;28.04;44.61;96595.50;5008373;28;20120;-77
2022/07/05 08:16:38;;;;;;;5.53;1.55;;;;;;;27.77;46.18;96597.47;5026991;28;20029;-77
2022/07/05 08:21:48;;;;;;;2.60;1.00;;;;;;;27.98;44.60;96593.03;5027705;28;20033;-78
2022/07/05 08:24:14;;;;;;;2.38;1.20;;;;;;;28.38;42.42;96595.13;5026861;28;20446;-77
2022/07/05 08:26:41;;;;;;;5.78;1.30;;;;;;;28.20;42.99;96599.06;5021744;28;20040;-77
2022/07/05 08:29:09;;;;;;;2.97;1.48;;;;;;;28.63;42.49;96591.72;5020726;28;20057;-78
2022/07/05 08:31:37;;;;;;;4.82;1.40;;;;;;;28.77;42.06;96592.03;5009870;28;20026;-77
2022/07/05 08:34:03;;;;;;;4.28;1.55;;;;;;;29.29;40.17;96593.78;5025882;28;20125;-75
2022/07/05 08:36:29;;;;;;;2.30;1.50;;;;;;;27.99;43.08;96591.94;5020776;28;20456;-78
2022/07/05 08:38:54;;;;;;;5.45;1.38;;;;;;;29.01;41.59;96595.13;5028056;28;20480;-78
2022/07/05 08:41:22;;;;;;;2.45;1.50;;;;;;;29.66;40.42;96593.53;5027737;28;20029;-78
2022/07/05 08:43:49;;;;;;;2.50;1.40;;;;;;;29.79;39.72;96590.28;5026079;28;20033;-78
2022/07/05 08:46:16;;;;;;;3.30;1.40;;;;;;;29.62;39.75;96591.66;5027961;28;20128;-78
2022/07/05 08:48:46;;;;;;;4.60;1.77;;;;;;;29.79;37.70;96589.47;5027411;28;20033;-77
2022/07/05 08:51:14;;;;;;;2.45;1.20;;;;;;;29.29;39.45;96589.19;5028037;28;20477;-78
2022/07/05 08:53:41;;;;;;;2.10;1.23;;;;;;;29.67;38.15;96588.94;5027255;28;20029;-78
2022/07/05 08:56:12;;;;;;;2.80;1.30;;;;;;;30.22;37.72;96579.09;5028001;28;20073;-78
2022/07/05 08:58:38;;;;;;;2.15;1.15;;;;;;;30.49;35.68;96584.97;5027694;28;20027;-78
2022/07/05 09:01:05;;;;;;;3.20;1.30;;;;;;;30.18;36.36;96584.25;5027462;28;20040;-78
2022/07/05 09:03:38;;;;;;;3.60;1.23;;;;;;;30.82;34.58;96584.53;5027770;28;20029;-78
2022/07/05 09:06:08;;;;;;;6.03;1.48;;;;;;;29.92;34.78;96586.19;5027249;28;20033;-78
2022/07/05 09:08:40;;;;;;;1.20;1.00;;;;;;;31.04;33.95;96578.72;5025642;28;20112;-78
2022/07/05 09:11:08;;;;;;;2.45;1.20;;;;;;;30.43;34.32;96588.78;5027559;28;20028;-78
2022/07/05 09:13:35;;;;;;;3.00;1.20;;;;;;;31.66;34.36;96577.19;5007919;28;20040;-79
2022/07/05 09:16:00;;;;;;;2.05;1.20;;;;;;;30.95;33.17;96582.03;5027708;28;20075;-78
2022/07/05 09:18:43;;;;;;;1.48;1.00;;;;;;;30.96;34.73;96574.69;5027827;28;20034;-78
2022/07/05 09:21:23;;;;;;;1.77;1.17;;;;;;;31.09;33.81;96584.94;5030724;28;20045;-78
2022/07/05 09:23:56;;;;;;;3.55;1.38;;;;;;;31.65;32.91;96573.63;5023896;28;20076;-78
2022/07/05 09:26:31;;;;;;;3.03;1.60;;;;;;;31.37;34.17;96582.59;5026984;28;20053;-78
2022/07/05 09:28:58;;;;;;;2.67;1.20;;;;;;;31.87;33.63;96577.78;5007907;28;20033;-78
2022/07/05 09:31:32;;;;;;;3.33;1.42;;;;;;;31.76;32.61;96578.97;5019508;28;20037;-78
2022/07/05 09:34:25;;;;;;;1.67;1.30;;;;;;;31.23;32.48;96583.19;5028199;28;20083;-78
2022/07/05 09:37:04;;;;;;;3.97;1.40;;;;;;;31.52;31.99;96582.44;5021136;28;20128;-78
2022/07/05 09:39:29;;;;;;;2.70;1.25;;;;;;;30.40;32.61;96588.53;5027883;28;20034;-77
2022/07/05 09:42:23;;;;;;;3.72;1.25;;;;;;;29.01;33.73;96595.13;5026816;28;20032;-77
2022/07/05 09:44:58;;;;;;;2.15;0.90;;;;;;;30.26;30.79;96588.31;5021465;28;20073;-78
2022/07/05 09:47:27;;;;;;;2.28;1.42;;;;;;;30.02;32.23;96593.50;5026462;28;20032;-78
2022/07/05 09:50:03;;;;;;;2.17;0.95;;;;;;;29.70;30.45;96586.47;5027861;28;20041;-78
2022/07/05 09:52:31;;;;;;;4.80;1.10;;;;;;;28.95;33.37;96588.03;5027588;28;20052;-78
2022/07/05 09:55:01;;;;;;;2.58;1.00;;;;;;;28.81;33.73;96593.94;5019111;28;20049;-78
2022/07/05 09:57:27;;;;;;;2.28;1.00;;;;;;;29.02;33.66;96588.59;5032233;28;20033;-78
2022/07/05 10:00:05;;;;;;;1.70;0.98;;;;;;;30.26;30.38;96585.59;5027964;28;20036;-78
2022/07/05 10:02:42;;;;;;;3.50;1.10;;;;;;;31.14;29.30;96584.88;5031041;28;20042;-78
2022/07/05 10:05:15;;;;;;;3.90;0.93;;;;;;;30.06;30.89;96583.72;5047108;28;20029;-78
2022/07/05 10:07:45;;;;;;;3.50;0.98;;;;;;;30.00;33.26;96592.94;5032897;28;20033;-78
2022/07/05 10:10:13;;;;;;;3.22;1.50;;;;;;;30.87;31.27;96584.53;5030940;28;20670;-78
2022/07/05 10:12:39;;;;;;;2.05;0.85;;;;;;;30.41;32.94;96590.13;5027253;28;21408;-78
2022/07/05 10:15:09;;;;;;;2.47;1.08;;;;;;;28.86;33.87;96603.97;5029831;28;20033;-78
2022/07/05 10:17:40;;;;;;;2.75;0.90;;;;;;;28.27;34.29;96604.25;5029999;28;20039;-81
2022/07/05 10:20:15;;;;;;;1.35;0.80;;;;;;;28.48;34.55;96611.44;5042309;28;20037;-79
2022/07/05 10:22:42;;;;;;;3.72;0.95;;;;;;;28.34;34.08;96604.84;5026176;28;20091;-79
2022/07/05 10:25:08;;;;;;;1.90;1.00;;;;;;;28.01;36.00;96597.91;5027498;28;21391;-78
2022/07/05 10:27:36;;;;;;;2.75;0.90;;;;;;;27.97;36.10;96608.44;5022486;28;20033;-78
2022/07/05 10:30:03;;;;;;;6.60;1.35;;;;;;;28.69;34.88;96600.69;5031402;28;20029;-77
2022/07/05 10:32:30;;;;;;;3.85;1.10;;;;;;;29.30;32.88;96609.75;5014665;28;20072;-78
2022/07/05 10:34:58;;;;;;;1.83;1.00;;;;;;;28.20;34.26;96597.22;5032412;28;20028;-78
2022/07/05 10:37:28;;;;;;;3.83;1.40;;;;;;;28.15;35.45;96596.34;5027047;28;20115;-77
2022/07/05 10:39:59;;;;;;;2.53;1.10;;;;;;;27.80;37.13;96600.47;5032112;28;20033;-78
2022/07/05 10:42:27;;;;;;;2.88;1.08;;;;;;;28.19;36.25;96605.56;5026223;28;20030;-78
2022/07/05 10:44:53;;;;;;;2.58;1.10;;;;;;;29.19;32.96;96599.19;5025404;28;20021;-78
2022/07/05 10:47:19;;;;;;;1.33;0.82;;;;;;;29.73;32.11;96594.06;5029110;28;20550;-78
2022/07/05 10:50:07;;;;;;;6.13;1.52;;;;;;;30.15;31.06;96583.94;5034011;28;20148;-79
2022/07/05 10:52:34;;;;;;;1.45;0.90;;;;;;;30.74;31.34;96588.63;5044504;28;20045;-78
2022/07/05 10:55:21;;;;;;;3.28;0.95;;;;;;;31.01;29.23;96585.50;5029558;28;20072;-78
2022/07/05 10:58:22;;;;;;;2.75;1.30;;;;;;;31.34;28.31;96583.97;5029970;28;20033;-80
2022/07/05 11:01:09;;;;;;;4.35;1.23;;;;;;;31.73;27.34;96585.00;5028418;28;20030;-79
2022/07/05 11:03:49;;;;;;;1.73;1.10;;;;;;;31.89;28.45;96573.72;5036817;28;20112;-76
2022/07/05 11:06:28;;;;;;;4.00;1.02;;;;;;;31.77;29.44;96575.19;5029791;28;20511;-77
2022/07/05 11:08:57;;;;;;;1.92;0.90;;;;;;;30.56;29.17;96578.41;5041108;28;20044;-79
2022/07/05 11:11:35;;;;;;;2.63;1.02;;;;;;;31.66;28.33;96580.72;5038975;28;20076;-78
2022/07/05 11:14:04;;;;;;;1.52;0.77;;;;;;;32.12;27.17;96566.66;5024638;28;20076;-78
2022/07/05 11:16:35;;;;;;;2.53;1.17;;;;;;;31.62;28.20;96574.22;5008337;28;20465;-79
2022/07/05 11:19:10;;;;;;;3.65;1.15;;;;;;;31.32;29.56;96569.88;5028708;28;20451;-78
2022/07/05 11:21:38;;;;;;;3.67;1.02;;;;;;;32.06;29.06;96576.00;5019950;28;20037;-78
2022/07/05 11:24:21;;;;;;;1.75;0.90;;;;;;;31.52;26.91;96568.84;5028574;28;20052;-79
2022/07/05 11:26:49;;;;;;;2.42;1.23;;;;;;;31.41;28.70;96575.47;5028530;28;20060;-78
2022/07/05 11:29:50;;;;;;;2.50;0.80;;;;;;;32.13;26.96;96562.84;5008059;28;20109;-78
2022/07/05 11:32:22;;;;;;;1.25;0.90;;;;;;;32.74;27.54;96571.41;5017611;28;20549;-78
2022/07/05 11:34:52;;;;;;;3.08;1.27;;;;;;;31.87;26.64;96565.03;5022409;28;20045;-78
2022/07/05 11:37:26;;;;;;;3.50;1.67;;;;;;;32.23;28.47;96563.81;5028268;28;20063;-78
2022/07/05 11:40:10;;;;;;;3.85;1.08;;;;;;;33.29;27.89;96560.78;5026797;28;20048;-78
2022/07/05 11:42:39;;;;;;;2.17;0.90;;;;;;;33.30;26.40;96562.41;5037500;28;20102;-78